Briefing drone pour Saint-marcel

Rechercher une autre localisation

Conditions de vol :


Nous sommes le : Mercredi 07 décembre 2022
Il est 20:41 UTC (21:41 LT)

Lever de soleil : 06:45 UTC (07:45 LT)
Coucher de soleil : 16:18 UTC (17:18 LT)

Météo

L'essentiel des conditions de vol

VIGILANCE MÉTÉO FRANCE - Saône-et-Loire (71)
Pas de vigilances particulieres
METAR de LFLH
LFLH 071800Z AUTO VRB02KT CAVOK M01/M02 Q1016

Date d'émission: 07/12/2022
Heure d'émission: 18:00 UTC
Vent: Variable 2 KT (4 km/h)
Visibilité horizontale: > 10 km
Plafond : Plafond et visibilité OK (CAVOK)
Température: -1 °C
Point de rosée: -2 °C
Humidité: 93%
Pression (QNH): 1016 hPa
Prévision 24h pour Chalon-sur-saone (2 km)
Vent : 70° pour 2 KT (6 km/h)
Temperature Maxi: 3 °C
Temperature Min: 3 °C
Humidité : 74%
Condition : Peu nuageux



Warning: count(): Parameter must be an array or an object that implements Countable in /homepages/6/d509196549/htdocs/droneoxygene/briefing.php on line 743
WEBCAM POUR SAINT-MARCEL

Réglementation

Voler en sécurité

CARTES AERONAUTIQUE 1/500.000
CARTE AZBA (Reseau basse altitude)
CARTES VAC (LFLH)
SUP AIP




Chargement des AIP...
NOTAM (SAINT-MARCEL + Terrain à proximité / FIR )




Chargement des NOTAMS...
CONTACT PREFECTURE 71


Avertissement : Les données mises à disposition sont indicatives. Oxygène Drone ne pourra être tenu responsable de dégâts causés aux biens et aux personnes.